Observations for STORNOWAY, United Kingdom (EGPO)

EGPO 231050Z 20017KT 9999 FEW018 14/11 Q1003
EGPO 231020Z 20012KT 9999 FEW012 14/11 Q1003
EGPO 230950Z 20013KT 9999 FEW012 13/11 Q1003
EGPO 230920Z 19010KT 9999 FEW012 13/11 Q1003
EGPO 230850Z 19010KT 9999 FEW009 12/11 Q1003
EGPO 230820Z 18022KT 9999 VCSH FEW008 SCT018 12/11 Q1002 RERA   
EGPO 230750Z 18021KT 6000 RA FEW005 BKN008 BKN012 12/11 Q1002   
EGPO 230720Z 17022KT 6000 RA FEW005 BKN008 BKN014 12/11 Q1002   
EGPO 230650Z 17023KT 9000 RA FEW006 BKN009 OVC012 11/11 Q1002   
EGPO 230620Z 16023KT 9999 RA FEW008 BKN012 OVC020 11/10 Q1002   
EGPO 230550Z 16023KT 9000 -RA FEW008 SCT014 BKN022 11/10 Q1003  
EGPO 230520Z 16020KT 9999 -RA FEW008 BKN014 OVC020 11/10 Q1003  
EGPO 230450Z AUTO 15017KT 6000 -RA FEW010/// BKN014/// 10/09 Q1004  
EGPO 230420Z AUTO 15017KT 6000 SCT012/// SCT016/// BKN026/// 10/09 Q1004
EGPO 230350Z AUTO 17020KT 7000 -RA FEW015/// BKN025/// BKN032/// 10/09 Q1005
EGPO 230320Z AUTO 16021KT 9999 OVC036/// 10/08 Q1005
EGPO 230250Z AUTO 16019KT 9999 -RA SCT041/// 10/08 Q1005
EGPO 230220Z AUTO 16020KT 9999 -RA NCD 11/08 Q1006  
EGPO 230150Z AUTO 16017KT 9999 NCD 11/08 Q1006  
EGPO 230120Z AUTO 16019KT 9999 NCD 11/07 Q1007  
EGPO 230050Z AUTO 16017KT 9999 NCD 11/08 Q1007  
EGPO 230020Z AUTO 16015KT 9999 NCD 10/07 Q1007  
EGPO 222350Z AUTO 17013KT 9999 FEW040/// 11/07 Q1008
EGPO 222320Z AUTO 17013KT 9999 FEW029/// BKN038/// 10/07 Q1008  
EGPO 222250Z AUTO 17013KT 9999 FEW022/// 09/07 Q1008
EGPO 222220Z AUTO 19007KT 9999 NCD 08/06 Q1009  
EGPO 222150Z AUTO 20006KT 9999 NCD 07/05 Q1009  
EGPO 222120Z AUTO 20005KT 9999 NCD 05/04 Q1009  
EGPO 222050Z AUTO 22002KT 9999 NCD 05/04 Q1009  
EGPO 222020Z AUTO 23002KT 9999 NCD 06/05 Q1009  
EGPO 221950Z AUTO 23001KT 9999 NCD 07/06 Q1009  
EGPO 221920Z AUTO 22003KT 9999 BKN031/// 08/07 Q1009
EGPO 221850Z AUTO 21003KT 9999 BKN028/// 09/08 Q1009
EGPO 221820Z AUTO 22005KT 9999 NCD 09/08 Q1009  
EGPO 221750Z 24004KT 9999 VCSH FEW006 09/08 Q1009   
EGPO 221720Z 24006KT 9999 VCSH FEW006 SCT012 10/09 Q1009
EGPO 221650Z 26009KT 9999 -DZ FEW008 SCT045 09/08 Q1008 
EGPO 221620Z 25010KT 9999 VCSH FEW008 10/08 Q1008   
EGPO 221550Z 26011KT 9999 VCSH FEW008 SCT014 11/09 Q1007
EGPO 221520Z 26010KT 9999 FEW009 SCT014 11/09 Q1007 
EGPO 221450Z 27010KT 9999 VCSH FEW009 SCT014 11/09 Q1007
EGPO 221420Z 27007KT 9999 FEW008 11/09 Q1007
EGPO 221350Z 26007KT 9999 FEW008 SCT016 11/09 Q1006 
EGPO 221320Z 28010KT 9999 FEW008 SCT016 12/09 Q1006 
EGPO 221250Z 28012KT 9999 FEW008 SCT015 12/10 Q1006 
EGPO 221220Z 28012KT 9999 FEW008 SCT016 12/09 Q1005 
EGPO 221150Z 29007KT 260V330 9999 FEW007 SCT014 13/10 Q1005 
EGPO 221120Z 29013KT 9999 FEW007 SCT012 13/10 Q1004 
EGPO 221050Z 28014KT 9999 FEW007 12/10 Q1004
EGPO 221020Z AUTO 28012KT 9999 SCT011/// 12/10 Q1003